createdAt,value
2023-02-19T17:27:00.707Z,81.40
2023-02-19T17:29:28.174Z,83.00
2023-02-19T17:31:55.570Z,83.50
2023-02-19T17:34:23.070Z,84.40
2023-02-19T17:36:50.372Z,85.10
2023-02-19T17:39:18.764Z,84.50
2023-02-19T17:41:45.984Z,85.00
2023-02-19T17:44:13.329Z,85.70
2023-02-19T17:46:42.023Z,86.60
2023-02-19T17:49:12.996Z,87.20
2023-02-19T17:51:40.497Z,86.70
2023-02-19T17:54:08.495Z,87.70
2023-02-19T17:56:35.969Z,86.40
2023-02-19T17:59:03.500Z,86.90
2023-02-19T18:01:30.789Z,87.30
2023-02-19T18:03:58.104Z,86.40
2023-02-19T18:06:25.639Z,86.10
2023-02-19T18:08:53.961Z,85.50
2023-02-19T18:11:23.424Z,83.60
2023-02-19T18:13:52.642Z,83.00
2023-02-19T18:16:20.553Z,80.50
2023-02-19T18:18:48.708Z,80.40
2023-02-19T18:21:15.909Z,79.70
2023-02-19T18:23:43.354Z,81.00
2023-02-19T18:26:12.111Z,79.30
2023-02-19T18:28:40.484Z,79.80
2023-02-19T18:31:08.178Z,80.50
2023-02-19T18:33:35.644Z,82.60
2023-02-19T18:36:06.646Z,81.40
2023-02-19T18:38:34.043Z,81.30
2023-02-19T18:41:01.291Z,80.90
2023-02-19T18:43:28.670Z,78.60
2023-02-19T18:45:55.861Z,77.80
2023-02-19T18:48:23.095Z,78.70
2023-02-19T18:50:50.416Z,77.10
2023-02-19T18:53:17.955Z,75.60
2023-02-19T18:55:45.184Z,74.50
2023-02-19T18:58:12.778Z,75.20
2023-02-19T19:00:40.324Z,75.20
2023-02-19T19:03:13.324Z,73.30
2023-02-19T19:05:40.644Z,71.40
2023-02-19T19:08:08.164Z,70.40
2023-02-19T19:10:35.353Z,69.40
2023-02-19T19:13:02.744Z,73.30
2023-02-19T19:15:32.669Z,73.50
2023-02-19T19:17:59.991Z,75.30
2023-02-19T19:20:30.322Z,77.00
2023-02-19T19:22:57.690Z,78.50
2023-02-19T19:25:28.317Z,78.10
2023-02-19T19:27:56.334Z,80.10
2023-02-19T19:30:23.635Z,80.60
2023-02-19T19:32:52.670Z,82.10
2023-02-19T19:35:22.128Z,82.20
2023-02-19T19:37:49.982Z,80.90
2023-02-19T19:40:18.626Z,81.40
2023-02-19T19:42:46.735Z,83.40
2023-02-19T19:45:14.647Z,84.30
2023-02-19T19:47:46.107Z,84.30
2023-02-19T19:50:13.610Z,85.60
2023-02-19T19:52:40.938Z,85.40
2023-02-19T19:55:08.937Z,86.40
2023-02-19T19:57:37.366Z,86.70
2023-02-19T20:00:06.753Z,88.20
2023-02-19T20:02:34.032Z,89.00
2023-02-19T20:05:01.248Z,89.60
2023-02-19T20:07:28.517Z,89.60
2023-02-19T20:09:55.694Z,89.90
2023-02-19T20:12:22.890Z,90.20
2023-02-19T20:14:50.088Z,90.80
2023-02-19T20:17:17.399Z,90.90
2023-02-19T20:19:46.329Z,90.80
2023-02-19T20:22:13.665Z,90.80
2023-02-19T20:24:40.870Z,91.50
2023-02-19T20:27:08.772Z,91.70
2023-02-19T20:29:36.390Z,91.40
2023-02-19T20:32:03.999Z,91.10
2023-02-19T20:34:32.117Z,90.80
2023-02-19T20:36:59.622Z,90.40
2023-02-19T20:39:27.167Z,90.30
2023-02-19T20:41:55.050Z,90.00
2023-02-19T20:44:22.414Z,90.10
2023-02-19T20:46:51.977Z,89.60
2023-02-19T20:49:23.210Z,89.60
2023-02-19T20:52:00.335Z,90.10
2023-02-19T20:54:31.904Z,90.20
2023-02-19T20:57:02.478Z,90.20
2023-02-19T20:59:33.228Z,90.10
2023-02-19T21:02:03.403Z,89.70
2023-02-19T21:04:30.891Z,90.10
2023-02-19T21:06:59.046Z,90.60
2023-02-19T21:09:26.459Z,90.40
2023-02-19T21:11:54.096Z,90.40
2023-02-19T21:14:21.318Z,90.60
2023-02-19T21:16:48.843Z,90.60
2023-02-19T21:19:16.183Z,90.80
2023-02-19T21:21:43.450Z,91.00
2023-02-19T21:24:14.128Z,92.00
2023-02-19T21:26:43.267Z,92.00
2023-02-19T21:29:16.725Z,91.70
2023-02-19T21:31:47.872Z,93.50
2023-02-19T21:34:20.187Z,93.60
2023-02-19T21:36:47.589Z,92.80
2023-02-19T21:39:18.902Z,93.10
2023-02-19T21:41:46.782Z,92.80
2023-02-19T21:44:14.232Z,92.70
2023-02-19T21:46:41.716Z,92.90
2023-02-19T21:49:11.375Z,93.00
2023-02-19T21:51:41.898Z,94.10
2023-02-19T21:54:22.877Z,94.10
2023-02-19T21:56:51.092Z,93.90
2023-02-19T21:59:19.856Z,93.50
2023-02-19T22:01:47.685Z,93.10
2023-02-19T22:04:18.867Z,93.00
2023-02-19T22:06:46.297Z,92.70
2023-02-19T22:09:15.041Z,92.70
2023-02-19T22:11:42.485Z,92.70
2023-02-19T22:14:09.959Z,92.70
2023-02-19T22:16:37.209Z,92.90
2023-02-19T22:19:04.932Z,93.00
2023-02-19T22:21:33.906Z,93.00
2023-02-19T22:24:03.040Z,93.40
2023-02-19T22:26:35.230Z,93.50
2023-02-19T22:29:03.784Z,93.90
2023-02-19T22:31:33.193Z,94.10
2023-02-19T22:34:00.665Z,94.10
2023-02-19T22:36:31.453Z,94.10
2023-02-19T22:39:00.658Z,94.30
2023-02-19T22:41:29.034Z,94.30
2023-02-19T22:48:03.102Z,94.30
2023-02-19T22:50:30.548Z,94.50
2023-02-19T22:52:58.051Z,94.30
2023-02-19T22:55:25.278Z,94.10
2023-02-19T22:57:52.638Z,94.30
2023-02-19T23:00:21.652Z,94.20
2023-02-19T23:02:49.298Z,94.10
2023-02-19T23:05:17.195Z,94.10
2023-02-19T23:07:45.923Z,94.40
2023-02-19T23:14:27.991Z,94.70
2023-02-19T23:16:55.307Z,95.10
2023-02-19T23:19:22.581Z,95.40
2023-02-19T23:21:50.340Z,95.50
2023-02-19T23:28:35.748Z,95.40
2023-02-19T23:31:03.440Z,95.90
2023-02-19T23:33:30.731Z,95.90
2023-02-19T23:35:58.108Z,95.80
2023-02-19T23:38:25.305Z,96.10
2023-02-19T23:40:52.506Z,96.40
2023-02-19T23:43:20.016Z,96.10
2023-02-19T23:49:53.606Z,96.10
2023-02-19T23:52:21.872Z,96.30
2023-02-19T23:54:49.100Z,96.60
2023-02-19T23:57:16.473Z,96.40
2023-02-19T23:59:43.784Z,96.50
